Time;durP1;ratioP1;P1;durP2;ratioP2;P2;SDS_P1;SDS_P2;PMS_P1;PMS_P2;Temp;Humidity;BMP_temperature;BMP_pressure;BME280_temperature;BME280_humidity;BME280_pressure;Samples;Min_cycle;Max_cycle;Signal;HPM_P1;HPM_P2
2022/02/21 00:01:50;;;;;;;0.67;0.57;;;;;;;10.12;51.40;94796.69;5053677;28;20619;-82
2022/02/21 00:04:16;;;;;;;0.57;0.57;;;;;;;10.12;51.88;94794.91;5053967;28;20217;-83
2022/02/21 00:06:43;;;;;;;1.07;0.57;;;;;;;10.12;51.75;94806.97;5052601;28;20605;-83
2022/02/21 00:09:10;;;;;;;0.60;0.60;;;;;;;10.18;51.88;94783.88;5055605;28;20217;-83
2022/02/21 00:11:36;;;;;;;0.60;0.60;;;;;;;10.19;51.87;94790.63;5049165;28;20194;-82
2022/02/21 00:14:03;;;;;;;0.60;0.60;;;;;;;10.16;51.83;94774.75;5041455;28;20229;-82
2022/02/21 00:16:29;;;;;;;0.90;0.60;;;;;;;10.12;52.30;94787.19;5042321;28;20948;-83
2022/02/21 00:18:57;;;;;;;0.70;0.70;;;;;;;10.05;52.65;94764.03;5043114;28;20190;-82
2022/02/21 00:21:24;;;;;;;0.70;0.70;;;;;;;10.17;51.95;94746.28;5043369;28;20305;-82
2022/02/21 00:23:50;;;;;;;0.97;0.60;;;;;;;10.23;51.89;94737.00;5042187;28;20743;-83
2022/02/21 00:26:18;;;;;;;0.50;0.50;;;;;;;10.18;52.38;94734.19;5042074;28;20240;-82
2022/02/21 00:28:45;;;;;;;0.53;0.53;;;;;;;10.18;52.52;94716.19;5042603;28;20247;-82
2022/02/21 00:31:12;;;;;;;0.60;0.60;;;;;;;10.16;52.28;94729.25;5042828;28;20198;-83
2022/02/21 00:33:38;;;;;;;0.60;0.60;;;;;;;10.19;52.36;94723.75;5042293;28;20252;-83
2022/02/21 00:36:06;;;;;;;0.60;0.60;;;;;;;10.13;52.63;94723.69;5054377;28;20194;-83
2022/02/21 00:38:33;;;;;;;0.50;0.50;;;;;;;10.19;51.95;94733.25;5054983;28;20249;-82
2022/02/21 00:41:00;;;;;;;0.50;0.50;;;;;;;10.13;52.04;94703.13;5035497;28;20240;-83
2022/02/21 00:43:26;;;;;;;0.60;0.60;;;;;;;10.12;51.70;94702.34;5041513;28;20934;-83
2022/02/21 00:45:52;;;;;;;0.60;0.60;;;;;;;10.15;51.88;94696.00;5042989;28;20239;-83
2022/02/21 00:48:19;;;;;;;0.60;0.60;;;;;;;10.25;52.09;94684.38;5041475;28;20675;-83
2022/02/21 00:50:45;;;;;;;0.83;0.70;;;;;;;10.23;51.40;94704.34;5042268;28;20209;-84
2022/02/21 00:53:13;;;;;;;0.83;0.60;;;;;;;10.20;52.05;94685.97;5041786;28;20265;-83
2022/02/21 00:55:40;;;;;;;0.50;0.50;;;;;;;10.14;51.83;94679.78;5042367;28;20237;-83
2022/02/21 00:58:06;;;;;;;0.63;0.60;;;;;;;10.14;51.32;94684.94;5040807;28;20673;-83
2022/02/21 01:00:34;;;;;;;0.50;0.50;;;;;;;10.20;51.48;94671.28;5041881;28;20209;-83
2022/02/21 01:03:01;;;;;;;0.53;0.50;;;;;;;10.21;51.13;94656.66;5034148;28;20240;-83
2022/02/21 01:05:27;;;;;;;0.53;0.53;;;;;;;10.26;51.16;94662.78;5030908;28;20210;-83
2022/02/21 01:07:53;;;;;;;0.50;0.50;;;;;;;10.18;51.13;94654.47;5041557;28;20197;-83
2022/02/21 01:10:21;;;;;;;0.40;0.40;;;;;;;10.27;50.74;94645.59;5040887;28;20202;-83
2022/02/21 01:12:48;;;;;;;0.50;0.50;;;;;;;10.27;51.05;94666.16;5047916;28;20229;-83
2022/02/21 01:15:14;;;;;;;0.97;0.60;;;;;;;10.26;50.90;94654.28;5040861;28;20199;-83
2022/02/21 01:17:41;;;;;;;0.60;0.60;;;;;;;10.30;50.34;94632.31;5042506;28;20202;-83
2022/02/21 01:20:08;;;;;;;0.50;0.50;;;;;;;10.29;50.67;94671.91;5040030;28;20194;-83
2022/02/21 01:22:35;;;;;;;0.60;0.60;;;;;;;10.38;50.42;94624.44;5042555;28;20218;-83
2022/02/21 01:25:02;;;;;;;0.77;0.70;;;;;;;10.39;50.42;94639.63;5035783;28;20194;-83
2022/02/21 01:27:30;;;;;;;0.60;0.60;;;;;;;10.37;50.13;94615.91;5044752;28;20198;-83
2022/02/21 01:29:56;;;;;;;1.17;0.60;;;;;;;10.43;50.33;94621.22;5045729;28;20203;-83
2022/02/21 01:32:23;;;;;;;0.60;0.60;;;;;;;10.41;49.85;94624.00;5045099;28;20233;-83
2022/02/21 01:34:49;;;;;;;0.83;0.70;;;;;;;10.45;49.89;94616.69;5057259;28;20236;-83
2022/02/21 01:37:16;;;;;;;1.17;0.70;;;;;;;10.45;49.97;94596.09;5058892;28;20193;-83
2022/02/21 01:39:42;;;;;;;0.70;0.70;;;;;;;10.42;49.75;94638.44;5055309;28;20198;-83
2022/02/21 01:42:10;;;;;;;2.33;0.70;;;;;;;10.42;49.94;94587.00;5054466;28;20244;-83
2022/02/21 01:44:41;;;;;;;0.87;0.77;;;;;;;10.42;50.20;94596.50;5052523;28;20312;-83
2022/02/21 01:47:09;;;;;;;1.73;0.60;;;;;;;10.41;50.28;94594.91;5040889;28;20198;-83
2022/02/21 01:49:36;;;;;;;0.93;0.67;;;;;;;10.38;50.28;94572.97;5041176;28;20205;-83
2022/02/21 01:52:03;;;;;;;0.70;0.70;;;;;;;10.41;49.78;94577.69;5040320;28;20221;-83
2022/02/21 01:54:31;;;;;;;1.77;0.63;;;;;;;10.44;50.14;94566.22;5039962;28;20280;-83
2022/02/21 01:56:57;;;;;;;0.80;0.80;;;;;;;10.39;49.88;94557.31;5042150;28;20198;-83
2022/02/21 01:59:24;;;;;;;0.93;0.60;;;;;;;10.34;50.25;94543.47;5036193;28;20194;-83
2022/02/21 02:01:53;;;;;;;1.30;0.80;;;;;;;10.32;50.20;94537.75;5051965;28;20226;-83
2022/02/21 02:04:20;;;;;;;0.97;0.70;;;;;;;10.34;50.28;94499.75;5052049;28;20226;-83
2022/02/21 02:06:47;;;;;;;1.40;0.80;;;;;;;10.38;50.24;94499.16;5040705;28;20628;-83
2022/02/21 02:09:14;;;;;;;0.93;0.70;;;;;;;10.42;50.15;94504.66;5040481;28;20194;-83
2022/02/21 02:11:42;;;;;;;0.83;0.63;;;;;;;10.36;49.68;94502.91;5040578;28;20210;-83
2022/02/21 02:14:08;;;;;;;1.67;0.70;;;;;;;10.39;49.36;94453.63;5040109;28;20232;-83
2022/02/21 02:16:35;;;;;;;0.80;0.70;;;;;;;10.47;49.71;94450.81;5040262;28;20615;-84
2022/02/21 02:19:03;;;;;;;2.20;0.87;;;;;;;10.51;49.07;94443.47;5039162;28;20198;-83
2022/02/21 02:21:33;;;;;;;0.97;0.70;;;;;;;10.47;49.21;94443.09;5035770;28;20206;-83
2022/02/21 02:24:01;;;;;;;0.67;0.67;;;;;;;10.53;49.05;94418.34;5035720;28;20230;-83
2022/02/21 02:26:28;;;;;;;0.70;0.70;;;;;;;10.48;48.79;94464.47;5037276;28;20232;-83
2022/02/21 02:28:55;;;;;;;0.77;0.63;;;;;;;10.52;48.24;94434.75;5035896;28;20708;-83
2022/02/21 02:31:21;;;;;;;0.60;0.60;;;;;;;10.57;48.00;94415.16;5036163;28;20202;-83
2022/02/21 02:33:48;;;;;;;0.97;0.60;;;;;;;10.59;48.01;94402.06;5036175;28;20244;-83
2022/02/21 02:36:14;;;;;;;0.87;0.60;;;;;;;10.64;47.93;94399.66;5037522;28;20190;-83
2022/02/21 02:38:42;;;;;;;1.37;0.70;;;;;;;10.64;48.10;94394.50;5040216;28;20272;-83
2022/02/21 02:41:11;;;;;;;0.50;0.50;;;;;;;10.65;47.82;94366.00;5038824;28;20198;-83
2022/02/21 02:43:38;;;;;;;0.60;0.60;;;;;;;10.69;47.66;94380.03;5038570;28;20226;-83
2022/02/21 02:46:07;;;;;;;1.23;0.80;;;;;;;10.72;47.61;94356.47;5038942;28;20194;-83
2022/02/21 02:48:33;;;;;;;1.90;0.80;;;;;;;10.77;47.50;94360.22;5037810;28;20198;-83
2022/02/21 02:51:00;;;;;;;1.00;0.80;;;;;;;10.70;47.25;94358.44;5039859;28;20223;-83
2022/02/21 02:53:27;;;;;;;1.03;0.70;;;;;;;10.71;47.06;94334.28;5038226;28;20261;-83
2022/02/21 02:55:53;;;;;;;1.27;0.70;;;;;;;10.76;47.16;94356.06;5040369;28;20225;-83
2022/02/21 02:58:21;;;;;;;1.00;0.80;;;;;;;10.74;47.27;94369.13;5045748;28;20197;-83
2022/02/21 03:00:48;;;;;;;0.60;0.60;;;;;;;10.78;47.54;94365.13;5042796;28;20201;-83
2022/02/21 03:03:14;;;;;;;1.47;0.60;;;;;;;10.86;47.13;94349.44;5037163;28;20291;-83
2022/02/21 03:05:41;;;;;;;0.97;0.70;;;;;;;10.79;46.90;94356.41;5039777;28;20341;-83
2022/02/21 03:08:07;;;;;;;0.50;0.50;;;;;;;10.82;46.81;94347.47;5038717;28;20198;-83
2022/02/21 03:10:34;;;;;;;1.50;0.80;;;;;;;10.87;46.65;94352.81;5038283;28;20271;-83
2022/02/21 03:13:00;;;;;;;0.50;0.50;;;;;;;10.83;46.43;94351.63;5039051;28;20232;-83
2022/02/21 03:15:28;;;;;;;1.27;0.87;;;;;;;10.88;46.78;94341.50;5046633;28;20209;-83
2022/02/21 03:17:54;;;;;;;0.70;0.57;;;;;;;10.90;46.65;94358.31;5036532;28;20209;-83
2022/02/21 03:20:21;;;;;;;0.70;0.60;;;;;;;10.88;46.35;94346.66;5038094;28;20198;-83
2022/02/21 03:22:47;;;;;;;1.70;0.67;;;;;;;10.91;46.58;94339.31;5038091;28;20291;-83
2022/02/21 03:25:14;;;;;;;1.47;0.70;;;;;;;10.99;46.56;94339.03;5037667;28;20199;-83
2022/02/21 03:27:41;;;;;;;1.33;0.70;;;;;;;10.94;46.04;94312.34;5038264;28;20194;-83
2022/02/21 03:30:08;;;;;;;1.17;0.80;;;;;;;10.98;46.17;94300.63;5047435;28;20660;-83
2022/02/21 03:32:36;;;;;;;1.10;0.80;;;;;;;10.91;46.13;94310.19;5050397;28;20217;-83
2022/02/21 03:35:04;;;;;;;3.10;2.03;;;;;;;10.84;46.42;94291.41;5049961;28;20206;-83
2022/02/21 03:37:30;;;;;;;2.03;0.90;;;;;;;10.98;46.13;94295.47;5051619;28;20251;-83
2022/02/21 03:39:57;;;;;;;1.03;0.73;;;;;;;10.94;46.30;94292.53;5050553;28;20199;-83
2022/02/21 03:42:23;;;;;;;0.87;0.60;;;;;;;11.06;46.53;94285.69;5051014;28;20828;-83
2022/02/21 03:44:49;;;;;;;0.90;0.80;;;;;;;11.05;46.54;94289.28;5050399;28;20274;-81
2022/02/21 03:47:16;;;;;;;0.63;0.63;;;;;;;11.07;46.41;94287.28;5050907;28;20545;-83
2022/02/21 03:49:45;;;;;;;0.70;0.70;;;;;;;11.03;46.67;94285.31;5038294;28;20928;-83
2022/02/21 03:52:12;;;;;;;1.13;0.70;;;;;;;10.99;46.72;94250.69;5031183;28;20301;-83
2022/02/21 03:54:38;;;;;;;7.27;0.73;;;;;;;10.90;47.00;94280.28;5037885;28;20226;-83
2022/02/21 03:57:05;;;;;;;0.73;0.60;;;;;;;10.92;47.06;94278.31;5037850;28;20831;-83
2022/02/21 03:59:31;;;;;;;0.87;0.80;;;;;;;10.96;47.28;94287.19;5037146;28;20210;-83
2022/02/21 04:01:58;;;;;;;1.20;0.70;;;;;;;10.93;47.37;94262.63;5049550;28;20202;-83
2022/02/21 04:04:24;;;;;;;0.70;0.60;;;;;;;10.96;47.68;94269.16;5048374;28;20221;-83
2022/02/21 04:06:52;;;;;;;0.57;0.57;;;;;;;10.93;47.42;94254.13;5037938;28;20203;-83
2022/02/21 04:09:19;;;;;;;1.57;0.80;;;;;;;10.89;47.86;94265.84;5037007;28;20194;-83
2022/02/21 04:11:45;;;;;;;0.60;0.60;;;;;;;10.87;48.00;94268.63;5037711;28;20194;-83
2022/02/21 04:14:11;;;;;;;1.37;0.60;;;;;;;10.85;48.31;94254.38;5030311;28;20611;-83
2022/02/21 04:16:38;;;;;;;0.80;0.50;;;;;;;10.83;48.44;94288.06;5037469;28;20206;-83
2022/02/21 04:19:04;;;;;;;0.50;0.50;;;;;;;10.81;48.31;94268.66;5042291;28;20202;-83
2022/02/21 04:21:32;;;;;;;2.20;0.77;;;;;;;10.82;48.93;94270.25;5051236;28;20255;-83
2022/02/21 04:24:00;;;;;;;0.70;0.60;;;;;;;10.75;48.94;94278.03;5049918;28;20323;-83
2022/02/21 04:26:26;;;;;;;1.90;0.73;;;;;;;10.71;49.29;94293.09;5051059;28;20205;-83
2022/02/21 04:28:52;;;;;;;0.90;0.60;;;;;;;10.69;49.80;94278.84;5049476;28;20201;-83
2022/02/21 04:31:19;;;;;;;0.70;0.60;;;;;;;10.56;50.67;94284.09;5051101;28;20683;-83
2022/02/21 04:33:46;;;;;;;0.87;0.63;;;;;;;10.52;50.72;94281.16;5050167;28;20259;-83
2022/02/21 04:36:13;;;;;;;0.60;0.60;;;;;;;10.50;51.27;94275.44;5052533;28;20220;-83
2022/02/21 04:38:39;;;;;;;0.63;0.60;;;;;;;10.41;52.04;94281.00;5055198;28;20202;-83
2022/02/21 04:41:07;;;;;;;0.53;0.53;;;;;;;10.38;52.12;94252.16;5052827;28;20205;-83
2022/02/21 04:43:33;;;;;;;0.50;0.50;;;;;;;10.31;52.00;94253.97;5056791;28;20229;-83
2022/02/21 04:46:00;;;;;;;0.60;0.60;;;;;;;10.31;52.51;94266.84;5056934;28;20202;-83
2022/02/21 04:48:28;;;;;;;0.73;0.60;;;;;;;10.28;52.26;94249.22;5050695;28;20975;-83
2022/02/21 04:50:55;;;;;;;0.40;0.40;;;;;;;10.21;52.80;94237.41;5052936;28;20202;-83
2022/02/21 04:53:21;;;;;;;1.00;0.60;;;;;;;10.29;52.56;94242.31;5055095;28;20259;-83
2022/02/21 04:55:48;;;;;;;1.93;0.50;;;;;;;10.27;52.54;94223.72;5053731;28;20252;-83
2022/02/21 04:58:16;;;;;;;1.00;0.70;;;;;;;10.21;52.84;94252.81;5034054;28;20221;-83
2022/02/21 05:00:42;;;;;;;0.50;0.50;;;;;;;10.10;53.32;94243.97;5040392;28;20699;-83
2022/02/21 05:03:08;;;;;;;0.67;0.60;;;;;;;9.94;54.16;94229.03;5040157;28;20658;-83
2022/02/21 05:05:36;;;;;;;1.27;0.70;;;;;;;9.99;54.17;94227.44;5040672;28;20209;-83
2022/02/21 05:08:02;;;;;;;2.30;0.70;;;;;;;10.09;53.71;94223.59;5052461;28;20218;-83
2022/02/21 05:10:29;;;;;;;0.50;0.50;;;;;;;10.03;53.90;94214.91;5055039;28;20208;-83
2022/02/21 05:12:56;;;;;;;0.50;0.50;;;;;;;10.02;53.99;94201.28;5051966;28;20252;-83
2022/02/21 05:15:23;;;;;;;0.80;0.70;;;;;;;9.90;54.39;94218.34;5054809;28;20197;-83
2022/02/21 05:17:50;;;;;;;0.50;0.50;;;;;;;9.87;54.69;94203.34;5053012;28;20204;-83
2022/02/21 05:20:16;;;;;;;0.60;0.60;;;;;;;9.87;54.94;94189.69;5039003;28;20190;-83
2022/02/21 05:22:42;;;;;;;0.67;0.50;;;;;;;9.90;54.57;94197.00;5040443;28;20244;-83
2022/02/21 05:25:09;;;;;;;1.07;0.53;;;;;;;9.83;54.65;94189.31;5040809;28;20198;-83
2022/02/21 05:27:37;;;;;;;1.00;0.60;;;;;;;9.87;54.94;94187.13;5040025;28;20225;-83
2022/02/21 05:30:05;;;;;;;0.50;0.50;;;;;;;9.91;55.15;94183.94;5052303;28;20820;-83
2022/02/21 05:32:33;;;;;;;0.50;0.50;;;;;;;9.80;55.42;94178.69;5048046;28;20229;-83
2022/02/21 05:34:59;;;;;;;0.57;0.50;;;;;;;9.88;55.45;94192.06;5038037;28;20206;-83
2022/02/21 05:37:26;;;;;;;0.50;0.50;;;;;;;9.92;55.41;94177.03;5035996;28;20209;-83
2022/02/21 05:39:53;;;;;;;0.50;0.50;;;;;;;9.90;55.51;94190.09;5036443;28;20198;-83
2022/02/21 05:42:20;;;;;;;0.80;0.53;;;;;;;9.89;55.36;94174.84;5031352;28;20226;-83
2022/02/21 05:44:46;;;;;;;1.43;0.67;;;;;;;9.93;55.67;94187.09;5032486;28;20234;-82
2022/02/21 05:47:13;;;;;;;1.60;0.70;;;;;;;9.99;55.30;94206.06;5034193;28;20561;-83
2022/02/21 05:49:41;;;;;;;0.67;0.67;;;;;;;9.88;55.78;94178.44;5033828;28;20206;-83
2022/02/21 05:52:08;;;;;;;2.97;0.60;;;;;;;9.92;56.19;94197.59;5035149;28;20210;-83
2022/02/21 05:54:35;;;;;;;0.70;0.70;;;;;;;9.96;56.07;94217.53;5030011;28;20253;-83
2022/02/21 05:57:01;;;;;;;0.83;0.70;;;;;;;10.00;56.48;94339.56;5029617;28;20203;-83
2022/02/21 05:59:28;;;;;;;0.70;0.70;;;;;;;9.33;57.88;94406.66;5029471;28;20238;-83
2022/02/21 06:01:54;;;;;;;0.93;0.60;;;;;;;8.42;60.92;94421.69;5026550;28;20216;-83
2022/02/21 06:04:21;;;;;;;0.77;0.60;;;;;;;7.57;62.97;94450.16;5034782;28;20234;-83
2022/02/21 06:06:48;;;;;;;1.37;0.70;;;;;;;7.00;65.38;94456.16;5034642;28;20213;-83
2022/02/21 06:09:15;;;;;;;0.60;0.60;;;;;;;6.71;66.78;94439.16;5035254;28;20927;-83
2022/02/21 06:11:41;;;;;;;1.10;0.60;;;;;;;6.51;67.11;94448.38;5035069;28;20206;-82
2022/02/21 06:14:08;;;;;;;0.57;0.57;;;;;;;6.34;68.57;94475.88;5033955;28;20230;-83
2022/02/21 06:16:34;;;;;;;0.73;0.60;;;;;;;6.08;69.82;94481.44;5034672;28;20202;-83
2022/02/21 06:19:01;;;;;;;0.93;0.60;;;;;;;6.00;69.66;94513.94;5035433;28;20194;-83
2022/02/21 06:21:28;;;;;;;0.90;0.70;;;;;;;5.66;71.32;94520.28;5034162;28;20202;-82
2022/02/21 06:23:56;;;;;;;1.03;0.70;;;;;;;5.42;73.05;94531.47;5034552;28;20241;-82
2022/02/21 06:26:22;;;;;;;0.50;0.50;;;;;;;5.31;73.70;94529.31;5034000;28;20198;-83
2022/02/21 06:28:49;;;;;;;1.43;0.73;;;;;;;5.26;73.82;94543.53;5034331;28;20202;-82
2022/02/21 06:31:15;;;;;;;2.23;0.80;;;;;;;5.16;73.43;94531.03;5034230;28;20225;-82
2022/02/21 06:33:42;;;;;;;0.73;0.73;;;;;;;5.17;72.73;94542.81;5033654;28;20316;-82
2022/02/21 06:36:08;;;;;;;1.20;0.70;;;;;;;5.22;72.95;94537.97;5035552;28;20346;-82
2022/02/21 06:38:37;;;;;;;1.10;0.63;;;;;;;5.15;72.36;94521.78;5036378;28;20221;-82
2022/02/21 06:41:05;;;;;;;1.73;0.80;;;;;;;5.05;71.88;94514.34;5037152;28;20256;-82
2022/02/21 06:43:31;;;;;;;1.30;1.00;;;;;;;5.15;70.78;94531.97;5035466;28;20236;-82
2022/02/21 06:45:58;;;;;;;2.60;0.77;;;;;;;5.15;71.47;94539.63;5037247;28;20198;-82
2022/02/21 06:48:24;;;;;;;2.90;1.60;;;;;;;5.25;70.99;94534.31;5048741;28;20197;-82
2022/02/21 06:50:51;;;;;;;4.83;2.63;;;;;;;5.36;70.05;94546.69;5045797;28;20194;-82
2022/02/21 06:53:17;;;;;;;1.03;0.80;;;;;;;5.29;69.76;94536.34;5041355;28;20222;-82
2022/02/21 06:55:44;;;;;;;0.70;0.70;;;;;;;5.31;69.30;94539.53;5048159;28;20213;-82
2022/02/21 06:58:12;;;;;;;2.20;0.90;;;;;;;5.34;68.97;94530.75;5034773;28;20204;-82
2022/02/21 07:00:38;;;;;;;2.60;1.00;;;;;;;5.35;68.42;94540.00;5033247;28;20198;-83
2022/02/21 07:03:05;;;;;;;0.97;0.73;;;;;;;5.42;68.86;94528.13;5032348;28;20233;-83
2022/02/21 07:05:31;;;;;;;1.17;0.80;;;;;;;5.30;68.72;94542.25;5035797;28;20206;-82
2022/02/21 07:07:58;;;;;;;1.57;0.90;;;;;;;5.34;69.77;94536.63;5035103;28;20215;-82
2022/02/21 07:10:24;;;;;;;1.83;0.90;;;;;;;5.30;69.97;94542.25;5034265;28;20692;-83
2022/02/21 07:12:51;;;;;;;1.53;0.80;;;;;;;5.28;69.39;94547.53;5034406;28;20291;-82
2022/02/21 07:15:19;;;;;;;1.10;0.80;;;;;;;5.15;69.43;94568.50;5035184;28;20241;-82
2022/02/21 07:17:45;;;;;;;0.80;0.80;;;;;;;5.25;70.58;94582.78;5035175;28;20229;-82
2022/02/21 07:20:14;;;;;;;1.70;0.90;;;;;;;5.29;70.09;94591.69;5034342;28;20206;-82
2022/02/21 07:22:42;;;;;;;3.73;2.50;;;;;;;5.19;70.33;94585.06;5043857;28;20237;-82
2022/02/21 07:25:10;;;;;;;1.27;1.10;;;;;;;5.31;70.51;94594.88;5042568;28;20213;-82
2022/02/21 07:27:44;;;;;;;0.83;0.80;;;;;;;5.36;70.08;94598.53;5042193;28;20633;-82
2022/02/21 07:30:12;;;;;;;1.40;0.90;;;;;;;5.45;69.61;94589.84;5037216;28;20204;-82
2022/02/21 07:32:40;;;;;;;0.80;0.80;;;;;;;5.42;69.55;94604.69;5036927;28;20214;-82
2022/02/21 07:35:08;;;;;;;1.83;0.90;;;;;;;5.56;68.95;94624.41;5037778;28;20205;-82
2022/02/21 07:37:34;;;;;;;0.93;0.80;;;;;;;5.53;68.87;94632.41;5037107;28;20669;-82
2022/02/21 07:40:01;;;;;;;1.13;0.87;;;;;;;5.29;68.23;94645.28;5037138;28;20205;-82
2022/02/21 07:42:28;;;;;;;2.63;0.90;;;;;;;5.18;68.20;94647.25;5036140;28;20222;-82
2022/02/21 07:44:54;;;;;;;1.83;0.80;;;;;;;5.28;68.78;94628.38;5036876;28;20230;-82
2022/02/21 07:47:20;;;;;;;0.93;0.87;;;;;;;5.29;67.96;94609.56;5036845;28;20210;-82
2022/02/21 07:49:48;;;;;;;1.60;0.90;;;;;;;5.21;68.48;94572.91;5036025;28;20653;-82
2022/02/21 07:52:15;;;;;;;0.80;0.80;;;;;;;5.31;68.30;94621.19;5037226;28;20200;-82
2022/02/21 07:54:42;;;;;;;2.47;0.90;;;;;;;5.20;68.30;94670.03;5041297;28;20229;-82
2022/02/21 07:57:09;;;;;;;1.63;0.90;;;;;;;5.09;68.79;94690.81;5049338;28;20277;-82
2022/02/21 07:59:36;;;;;;;3.03;1.10;;;;;;;5.22;68.21;94694.41;5046340;28;20195;-82
2022/02/21 08:02:03;;;;;;;0.80;0.77;;;;;;;5.25;67.85;94723.13;5036020;28;20648;-82
2022/02/21 08:04:29;;;;;;;2.00;1.00;;;;;;;5.30;67.30;94703.00;5036473;28;20309;-81
2022/02/21 08:06:57;;;;;;;1.27;0.87;;;;;;;5.39;66.81;94673.94;5036293;28;20201;-82
2022/02/21 08:09:23;;;;;;;1.47;0.90;;;;;;;5.29;66.79;94692.00;5036100;28;20195;-82
2022/02/21 08:11:50;;;;;;;5.03;1.10;;;;;;;5.39;66.91;94692.59;5035531;28;20256;-81
2022/02/21 08:14:17;;;;;;;2.80;1.10;;;;;;;5.63;66.69;94735.09;5046544;28;20237;-83
2022/02/21 08:16:43;;;;;;;2.87;1.00;;;;;;;5.63;65.63;94752.97;5034279;28;20206;-82
2022/02/21 08:19:10;;;;;;;2.20;0.97;;;;;;;5.57;65.98;94745.19;5041251;28;20235;-82
2022/02/21 08:21:37;;;;;;;0.77;0.77;;;;;;;5.70;65.61;94742.88;5054986;28;20197;-82
2022/02/21 08:24:06;;;;;;;3.30;1.40;;;;;;;5.78;64.93;94764.06;5040132;28;20226;-82
2022/02/21 08:26:33;;;;;;;2.17;1.00;;;;;;;5.65;65.40;94826.84;5040320;28;20224;-82
2022/02/21 08:28:59;;;;;;;1.97;1.40;;;;;;;5.48;65.86;94833.75;5040780;28;20198;-83
2022/02/21 08:31:26;;;;;;;1.90;1.17;;;;;;;5.31;66.10;94855.97;5039691;28;20252;-82
2022/02/21 08:33:52;;;;;;;1.50;1.00;;;;;;;5.34;66.07;94855.66;5039799;28;20292;-82
2022/02/21 08:36:19;;;;;;;1.30;0.80;;;;;;;5.31;65.64;94842.41;5044251;28;20688;-82
2022/02/21 08:38:45;;;;;;;2.67;0.80;;;;;;;5.39;65.25;94834.72;5039024;28;20201;-82
2022/02/21 08:41:13;;;;;;;2.07;1.10;;;;;;;5.39;65.46;94824.50;5048088;28;20189;-82
2022/02/21 08:43:39;;;;;;;2.77;2.17;;;;;;;5.45;65.33;94844.28;5053131;28;20279;-82
2022/02/21 08:46:06;;;;;;;1.47;0.90;;;;;;;5.35;65.43;94823.28;5051234;28;20227;-82
2022/02/21 08:48:32;;;;;;;1.80;1.00;;;;;;;5.42;65.08;94832.66;5039054;28;20203;-82
2022/02/21 08:50:58;;;;;;;1.43;1.00;;;;;;;5.57;64.47;94839.66;5038441;28;20236;-82
2022/02/21 08:53:25;;;;;;;2.13;0.90;;;;;;;5.83;63.05;94858.06;5038756;28;20777;-82
2022/02/21 08:55:51;;;;;;;0.87;0.87;;;;;;;5.77;62.60;94877.38;5032051;28;20199;-82
2022/02/21 08:58:19;;;;;;;1.10;1.00;;;;;;;5.74;62.40;94877.75;5034365;28;20194;-82
2022/02/21 09:00:46;;;;;;;1.40;1.10;;;;;;;5.89;62.18;94860.81;5036745;28;20202;-82
2022/02/21 09:03:12;;;;;;;2.33;1.23;;;;;;;6.13;62.06;94877.00;5031768;28;20230;-82
2022/02/21 09:05:38;;;;;;;1.80;1.20;;;;;;;6.02;62.36;94867.94;5034212;28;20233;-82
2022/02/21 09:08:06;;;;;;;2.23;0.97;;;;;;;6.06;62.33;94873.50;5035861;28;20214;-82
2022/02/21 09:10:32;;;;;;;1.13;0.93;;;;;;;6.03;62.85;94884.84;5035302;28;20661;-82
2022/02/21 09:12:59;;;;;;;1.50;1.07;;;;;;;5.94;62.34;94885.06;5031659;28;20230;-82
2022/02/21 09:15:28;;;;;;;1.33;0.97;;;;;;;5.98;63.08;94906.75;5034491;28;20206;-82
2022/02/21 09:17:56;;;;;;;1.00;0.90;;;;;;;5.85;62.74;94886.81;5035333;28;20206;-82
2022/02/21 09:20:24;;;;;;;2.20;0.83;;;;;;;5.94;63.21;94882.50;5035746;28;20896;-82
2022/02/21 09:22:51;;;;;;;1.17;1.00;;;;;;;6.13;62.57;94877.00;5050860;28;20287;-82
2022/02/21 09:25:17;;;;;;;2.13;1.00;;;;;;;6.11;61.24;94877.16;5050537;28;20240;-82
2022/02/21 09:27:44;;;;;;;1.77;0.90;;;;;;;6.07;60.05;94870.00;5051238;28;20201;-83
2022/02/21 09:30:11;;;;;;;1.87;1.00;;;;;;;6.07;60.41;94880.22;5041141;28;20277;-82
2022/02/21 09:32:39;;;;;;;3.37;1.07;;;;;;;6.14;60.57;94889.63;5049388;28;20214;-82
2022/02/21 09:35:07;;;;;;;1.23;0.93;;;;;;;6.26;60.11;94884.13;5034434;28;20202;-82
2022/02/21 09:37:35;;;;;;;2.20;1.30;;;;;;;6.41;60.77;94895.22;5035230;28;20248;-83
2022/02/21 09:40:03;;;;;;;2.20;1.00;;;;;;;6.23;59.84;94900.59;5038663;28;20199;-82
2022/02/21 09:42:31;;;;;;;2.17;1.30;;;;;;;6.27;59.79;94901.84;5046539;28;20218;-82
2022/02/21 09:44:57;;;;;;;3.40;1.03;;;;;;;6.30;58.97;94913.50;5051414;28;20213;-81
2022/02/21 09:47:24;;;;;;;1.90;0.93;;;;;;;6.15;58.19;94898.88;5045810;28;20202;-81
2022/02/21 09:49:53;;;;;;;1.33;0.93;;;;;;;6.19;57.58;94922.31;5040352;28;20206;-81
2022/02/21 09:52:20;;;;;;;2.70;1.20;;;;;;;6.25;57.95;94906.31;5040055;28;20703;-82
2022/02/21 09:54:46;;;;;;;3.00;1.10;;;;;;;6.47;58.11;94917.56;5038377;28;20229;-82
2022/02/21 09:57:15;;;;;;;2.07;1.00;;;;;;;6.57;57.52;94915.59;5037901;28;20190;-81
2022/02/21 09:59:41;;;;;;;3.93;1.10;;;;;;;6.57;58.02;94913.03;5045674;28;20202;-82
2022/02/21 10:02:18;;;;;;;1.87;0.90;;;;;;;6.56;57.84;94902.00;5039708;28;20202;-81
2022/02/21 10:04:45;;;;;;;1.63;1.17;;;;;;;6.64;57.60;94895.25;5037076;28;20750;-81
2022/02/21 10:07:28;;;;;;;5.27;1.60;;;;;;;6.86;56.77;94904.72;5037454;28;20216;-81
2022/02/21 10:09:58;;;;;;;3.33;1.70;;;;;;;7.00;55.85;94878.38;5038250;28;20745;-81
2022/02/21 10:12:26;;;;;;;2.50;1.13;;;;;;;7.45;54.43;94874.19;5041208;28;20716;-82
2022/02/21 10:14:52;;;;;;;3.30;1.30;;;;;;;7.58;53.28;94879.47;5034299;28;20197;-82
2022/02/21 10:17:24;;;;;;;2.13;1.37;;;;;;;7.43;53.18;94860.75;5034070;28;20567;-81
2022/02/21 10:19:51;;;;;;;2.73;1.10;;;;;;;7.54;53.39;94862.88;5034743;28;20213;-81
2022/02/21 10:22:23;;;;;;;1.83;1.10;;;;;;;7.70;53.09;94872.94;5027275;28;20209;-82
2022/02/21 10:24:51;;;;;;;4.50;1.50;;;;;;;8.00;52.82;94850.69;5024231;28;20249;-82
2022/02/21 10:27:19;;;;;;;1.47;0.90;;;;;;;8.21;52.24;94863.56;5032131;28;20208;-82
2022/02/21 10:29:48;;;;;;;1.47;1.17;;;;;;;8.43;51.51;94849.06;5042226;28;20193;-81
2022/02/21 10:32:16;;;;;;;2.57;1.27;;;;;;;8.77;51.27;94858.66;5047776;28;20189;-81
2022/02/21 10:34:45;;;;;;;3.23;1.40;;;;;;;8.96;49.30;94854.69;5048989;28;20803;-81
2022/02/21 10:37:13;;;;;;;2.47;1.20;;;;;;;8.70;49.46;94859.56;5047213;28;20798;-81
2022/02/21 10:39:40;;;;;;;2.50;1.00;;;;;;;8.92;48.35;94861.97;5035668;28;20201;-82
2022/02/21 10:42:08;;;;;;;2.10;1.00;;;;;;;8.91;47.98;94852.66;5038175;28;20206;-81
2022/02/21 10:44:38;;;;;;;2.30;1.00;;;;;;;8.59;49.11;94841.13;5036904;28;20240;-81
2022/02/21 10:47:13;;;;;;;1.27;0.90;;;;;;;8.10;50.21;94850.38;5040645;28;20202;-82
2022/02/21 10:49:47;;;;;;;2.40;1.20;;;;;;;7.88;50.94;94852.13;5030259;28;20197;-82
2022/02/21 10:52:17;;;;;;;1.17;1.00;;;;;;;7.96;50.23;94829.72;5035489;28;20693;-82
2022/02/21 10:54:46;;;;;;;5.17;1.07;;;;;;;7.81;51.02;94848.66;5039963;28;20225;-82
2022/02/21 10:57:14;;;;;;;1.63;0.83;;;;;;;7.42;50.85;94836.09;5049173;28;20257;-82
2022/02/21 10:59:41;;;;;;;2.63;0.80;;;;;;;7.29;51.89;94831.59;5048989;28;20193;-81
2022/02/21 11:02:10;;;;;;;3.40;1.17;;;;;;;7.16;52.74;94839.06;5003596;28;1044112;-81
2022/02/21 11:04:38;;;;;;;1.77;1.10;;;;;;;7.10;53.39;94852.56;5033243;28;20261;-82
2022/02/21 11:07:06;;;;;;;3.93;1.00;;;;;;;6.96;54.37;94840.50;5033318;28;20198;-81
2022/02/21 11:09:33;;;;;;;3.27;1.10;;;;;;;7.01;54.93;94846.72;5035462;28;20228;-81
2022/02/21 11:12:03;;;;;;;1.57;1.10;;;;;;;7.19;55.15;94844.63;5036000;28;20252;-81
2022/02/21 11:14:31;;;;;;;1.53;1.10;;;;;;;7.30;54.45;94842.63;5035290;28;20643;-81
2022/02/21 11:16:59;;;;;;;3.47;1.30;;;;;;;7.32;53.56;94838.09;5037188;28;20204;-81
2022/02/21 11:19:26;;;;;;;5.73;1.30;;;;;;;7.22;53.94;94833.25;5036878;28;20201;-82
2022/02/21 11:21:54;;;;;;;4.23;1.30;;;;;;;7.46;53.62;94839.91;5033396;28;20213;-82
2022/02/21 11:24:23;;;;;;;3.13;1.27;;;;;;;7.53;53.14;94828.78;5033284;28;20241;-82
2022/02/21 11:27:01;;;;;;;3.23;1.20;;;;;;;7.43;52.24;94830.81;5034323;28;20202;-84
2022/02/21 11:29:35;;;;;;;2.23;0.80;;;;;;;7.28;52.18;94830.81;5031979;28;20194;-82
2022/02/21 11:32:01;;;;;;;2.90;1.30;;;;;;;7.20;52.14;94830.88;5032759;28;20201;-81
2022/02/21 11:34:28;;;;;;;2.60;1.00;;;;;;;7.37;52.36;94835.81;5032919;28;20229;-80
2022/02/21 11:36:59;;;;;;;3.33;1.33;;;;;;;7.45;52.69;94831.44;5032811;28;20285;-82
2022/02/21 11:39:28;;;;;;;4.33;1.30;;;;;;;7.88;52.17;94829.06;5036657;28;20233;-80